createdAt,value
2019-05-11T00:00:13.884Z,13.6
2019-05-11T00:05:10.486Z,13.6
2019-05-11T00:10:07.130Z,13.5
2019-05-11T00:15:04.276Z,13.6
2019-05-11T00:20:01.151Z,13.4
2019-05-11T00:24:57.553Z,13.4
2019-05-11T00:29:54.067Z,13.4
2019-05-11T00:34:50.659Z,13.6
2019-05-11T00:39:47.083Z,13.6
2019-05-11T00:44:47.157Z,13.1
2019-05-11T00:49:40.333Z,13.6
2019-05-11T00:54:37.339Z,13.6
2019-05-11T00:59:33.676Z,13.5
2019-05-11T01:04:30.279Z,13.1
2019-05-11T01:09:26.689Z,13.6
2019-05-11T01:14:23.440Z,13.5
2019-05-11T01:19:19.891Z,13.5
2019-05-11T01:24:16.386Z,13.5
2019-05-11T01:29:12.985Z,13.4
2019-05-11T01:34:09.600Z,13.4
2019-05-11T01:39:06.032Z,13.3
2019-05-11T01:44:02.603Z,13.3
2019-05-11T01:48:58.946Z,13.1
2019-05-11T01:53:55.532Z,12.9
2019-05-11T01:58:51.584Z,13.1
2019-05-11T02:03:47.944Z,12.9
2019-05-11T02:08:44.895Z,12.4
2019-05-11T02:13:41.138Z,12.9
2019-05-11T02:18:37.585Z,12.9
2019-05-11T02:23:34.217Z,12.8
2019-05-11T02:28:31.177Z,12.4
2019-05-11T02:33:27.905Z,12.8
2019-05-11T02:38:24.404Z,12.7
2019-05-11T02:43:21.018Z,12.7
2019-05-11T02:48:17.366Z,12.5
2019-05-11T02:53:14.234Z,12.1
2019-05-11T02:58:10.742Z,12
2019-05-11T03:03:07.692Z,12.4
2019-05-11T03:08:04.406Z,12
2019-05-11T03:13:01.205Z,12.3
2019-05-11T03:17:57.670Z,12
2019-05-11T03:22:54.512Z,12
2019-05-11T03:27:50.927Z,12.4
2019-05-11T03:32:47.421Z,12.4
2019-05-11T03:37:43.469Z,12.1
2019-05-11T03:42:43.148Z,12.5
2019-05-11T03:47:40.705Z,12.4
2019-05-11T03:52:37.243Z,12
2019-05-11T03:57:34.720Z,12.2
2019-05-11T04:02:31.417Z,12.2
2019-05-11T04:07:27.791Z,11.6
2019-05-11T04:12:34.507Z,11.8
2019-05-11T04:17:20.891Z,12.3
2019-05-11T04:22:17.709Z,12.4
2019-05-11T04:27:19.203Z,12.4
2019-05-11T04:32:11.319Z,12
2019-05-11T04:37:08.756Z,12.6
2019-05-11T04:42:04.817Z,12.2
2019-05-11T04:47:00.127Z,12.4
2019-05-11T04:51:56.734Z,12.3
2019-05-11T04:56:53.525Z,12.9
2019-05-11T05:01:50.059Z,12.8
2019-05-11T05:06:58.820Z,12.5
2019-05-11T05:11:43.866Z,13.1
2019-05-11T05:16:40.453Z,13
2019-05-11T05:21:36.883Z,13.3
2019-05-11T05:26:33.384Z,13.3
2019-05-11T05:31:29.894Z,13.4
2019-05-11T05:36:25.866Z,13.5
2019-05-11T05:41:22.458Z,13.6
2019-05-11T05:46:19.013Z,13.6
2019-05-11T05:51:15.846Z,13.3
2019-05-11T05:56:12.499Z,13.3
2019-05-11T06:01:10.327Z,13.4
2019-05-11T06:06:06.104Z,14.1
2019-05-11T06:11:02.614Z,14
2019-05-11T06:16:00.010Z,13.6
2019-05-11T06:20:56.868Z,13.8
2019-05-11T06:25:53.339Z,14.3
2019-05-11T06:30:49.710Z,14.4
2019-05-11T06:35:46.316Z,14.5
2019-05-11T06:40:43.056Z,14.6
2019-05-11T06:45:39.450Z,14.7
2019-05-11T06:50:36.195Z,14.7
2019-05-11T06:55:32.388Z,14.8
2019-05-11T07:00:29.002Z,14.9
2019-05-11T07:05:25.633Z,14.4
2019-05-11T07:10:22.213Z,15
2019-05-11T07:15:18.329Z,15.1
2019-05-11T07:20:11.677Z,15.2
2019-05-11T07:25:08.343Z,14.1
2019-05-11T07:30:05.152Z,14.9
2019-05-11T07:35:01.764Z,15
2019-05-11T07:39:58.233Z,15.4
2019-05-11T07:44:54.837Z,15.6
2019-05-11T07:49:51.157Z,15.6
2019-05-11T07:54:52.447Z,15.7
2019-05-11T07:59:45.546Z,15.2
2019-05-11T08:04:42.461Z,15.4
2019-05-11T08:09:39.138Z,15.7
2019-05-11T08:14:51.841Z,16
2019-05-11T08:19:32.963Z,15.6
2019-05-11T08:24:29.266Z,16.2
2019-05-11T08:29:27.801Z,16.2
2019-05-11T08:34:23.010Z,15.8
2019-05-11T08:39:19.425Z,16.3
2019-05-11T08:44:18.153Z,16.4
2019-05-11T08:49:15.582Z,16.5
2019-05-11T08:54:09.924Z,16.6
2019-05-11T08:59:07.918Z,16.2
2019-05-11T09:04:03.415Z,16.7
2019-05-11T09:09:00.030Z,16.9
2019-05-11T09:13:57.812Z,16.9
2019-05-11T09:18:53.613Z,17
2019-05-11T09:23:50.481Z,17.1
2019-05-11T09:28:47.975Z,17.4
2019-05-11T09:33:45.144Z,17.4
2019-05-11T09:38:42.040Z,17.6
2019-05-11T09:43:38.872Z,17.7
2019-05-11T09:48:37.797Z,17.9
2019-05-11T09:53:32.897Z,18
2019-05-11T09:58:30.331Z,18.2
2019-05-11T10:03:28.107Z,18.2
2019-05-11T10:08:24.187Z,18.3
2019-05-11T10:13:20.872Z,18.5
2019-05-11T10:18:18.569Z,18.6
2019-05-11T10:23:14.396Z,18.6
2019-05-11T10:28:11.337Z,18.2
2019-05-11T10:33:08.454Z,18.2
2019-05-11T10:38:05.444Z,18.3
2019-05-11T10:43:02.935Z,18.8
2019-05-11T10:48:01.046Z,18.5
2019-05-11T10:52:55.990Z,18.4
2019-05-11T10:57:52.723Z,18.6
2019-05-11T11:02:49.685Z,19
2019-05-11T11:07:48.354Z,19.1
2019-05-11T11:12:42.931Z,19.2
2019-05-11T11:17:39.728Z,19.3
2019-05-11T11:22:41.052Z,19.1
2019-05-11T11:27:33.514Z,19.5
2019-05-11T11:32:30.137Z,19.2
2019-05-11T11:37:28.052Z,19.4
2019-05-11T11:42:23.695Z,19.6
2019-05-11T11:47:21.658Z,19.8
2019-05-11T11:52:18.753Z,19.9
2019-05-11T11:57:14.151Z,20.1
2019-05-11T12:02:10.345Z,20.3
2019-05-11T12:07:08.404Z,20.5
2019-05-11T12:12:04.291Z,20.7
2019-05-11T12:17:06.896Z,20.8
2019-05-11T12:21:58.204Z,20.7
2019-05-11T12:26:54.738Z,20.9
2019-05-11T12:31:51.464Z,20.7
2019-05-11T12:36:48.204Z,21.2
2019-05-11T12:41:44.941Z,20.9
2019-05-11T12:46:41.647Z,20.7
2019-05-11T12:51:38.455Z,20.4
2019-05-11T12:56:35.111Z,20.1
2019-05-11T13:01:31.260Z,20.4
2019-05-11T13:06:28.036Z,20.9
2019-05-11T13:11:24.111Z,20.6
2019-05-11T13:16:20.886Z,20.8
2019-05-11T13:21:18.497Z,21.4
2019-05-11T13:26:14.673Z,21
2019-05-11T13:31:11.437Z,21.1
2019-05-11T13:36:09.033Z,21.6
2019-05-11T13:41:04.949Z,21.2
2019-05-11T13:46:02.003Z,22.1
2019-05-11T13:50:58.918Z,22.3
2019-05-11T13:55:55.762Z,22.5
2019-05-11T14:00:52.577Z,22.3
2019-05-11T14:05:49.086Z,22.1
2019-05-11T14:10:45.798Z,22
2019-05-11T14:15:42.391Z,21.8
2019-05-11T14:20:39.000Z,21.7
2019-05-11T14:25:37.454Z,21.5
2019-05-11T14:30:32.080Z,21.4
2019-05-11T14:35:28.657Z,21.3
2019-05-11T14:40:25.399Z,21.4
2019-05-11T14:45:21.998Z,21.4
2019-05-11T14:50:19.086Z,21.8
2019-05-11T14:55:18.116Z,21.3
2019-05-11T15:00:12.592Z,21.1
2019-05-11T15:05:09.976Z,17.1
2019-05-11T15:10:08.007Z,21.2
2019-05-11T15:15:03.147Z,21.2
2019-05-11T15:19:59.758Z,21
2019-05-11T15:24:58.523Z,21
2019-05-11T15:29:52.928Z,20.9
2019-05-11T15:34:50.030Z,21.4
2019-05-11T15:39:48.340Z,20.8
2019-05-11T15:44:43.245Z,20.9
2019-05-11T15:49:39.945Z,21
2019-05-11T15:54:38.515Z,21
2019-05-11T15:59:33.368Z,21
2019-05-11T16:04:30.173Z,21.1
2019-05-11T16:09:28.978Z,21.5
2019-05-11T16:14:23.633Z,21.1
2019-05-11T16:19:20.348Z,21.2
2019-05-11T16:24:16.990Z,21.1
2019-05-11T16:29:13.609Z,21.2
2019-05-11T16:34:11.106Z,21.5
2019-05-11T16:39:09.834Z,21.1
2019-05-11T16:44:04.364Z,20.9
2019-05-11T16:49:01.182Z,20.8
2019-05-11T16:53:58.715Z,20.7
2019-05-11T16:58:54.926Z,20.5
2019-05-11T17:03:50.851Z,20.5
2019-05-11T17:08:48.658Z,20.3
2019-05-11T17:13:43.869Z,20.8
2019-05-11T17:18:41.135Z,20.6
2019-05-11T17:23:38.484Z,19.9
2019-05-11T17:28:34.739Z,20
2019-05-11T17:33:31.078Z,20
2019-05-11T17:38:28.148Z,19.9
2019-05-11T17:43:24.156Z,19.8
2019-05-11T17:48:21.083Z,19.7
2019-05-11T17:53:18.207Z,19.7
2019-05-11T17:58:14.528Z,19.6
2019-05-11T18:03:11.472Z,19.6
2019-05-11T18:08:08.674Z,19.5
2019-05-11T18:13:04.329Z,19.8
2019-05-11T18:18:00.109Z,19.3
2019-05-11T18:22:57.737Z,19.6
2019-05-11T18:27:53.335Z,19.5
2019-05-11T18:32:50.469Z,19.5
2019-05-11T18:37:47.738Z,19
2019-05-11T18:42:43.575Z,19.3
2019-05-11T18:47:40.606Z,19.3
2019-05-11T18:52:37.317Z,19
2019-05-11T18:57:34.531Z,19.1
2019-05-11T19:02:31.117Z,19.1
2019-05-11T19:07:28.351Z,19
2019-05-11T19:12:24.624Z,18.9
2019-05-11T19:17:21.089Z,18.8
2019-05-11T19:22:18.369Z,18.6
2019-05-11T19:27:14.430Z,18.7
2019-05-11T19:32:11.213Z,18.6
2019-05-11T19:37:08.587Z,18.4
2019-05-11T19:42:04.055Z,18.5
2019-05-11T19:47:00.844Z,18.4
2019-05-11T19:51:57.830Z,18.2
2019-05-11T19:56:54.423Z,18.4
2019-05-11T20:01:51.191Z,18.3
2019-05-11T20:06:48.573Z,17.5
2019-05-11T20:11:44.837Z,18.2
2019-05-11T20:16:41.171Z,18.2
2019-05-11T20:21:38.135Z,18.2
2019-05-11T20:26:34.613Z,18.1
2019-05-11T20:31:31.103Z,18
2019-05-11T20:36:27.788Z,18
2019-05-11T20:41:24.342Z,18
2019-05-11T20:46:20.640Z,17.8
2019-05-11T20:51:32.357Z,17.9
2019-05-11T20:56:13.773Z,17.8
2019-05-11T21:01:11.092Z,17.7
2019-05-11T21:06:08.084Z,17.6
2019-05-11T21:11:04.146Z,17.5
2019-05-11T21:16:01.316Z,17
2019-05-11T21:20:57.863Z,17.1
2019-05-11T21:25:54.202Z,17.2
2019-05-11T21:30:51.304Z,16.7
2019-05-11T21:35:48.854Z,17.1
2019-05-11T21:40:44.202Z,17.1
2019-05-11T21:45:40.906Z,17
2019-05-11T21:50:37.635Z,17
2019-05-11T21:55:34.433Z,17
2019-05-11T22:00:30.931Z,17
2019-05-11T22:05:28.846Z,16.7
2019-05-11T22:10:23.956Z,16.8
2019-05-11T22:15:20.617Z,16.7
2019-05-11T22:20:18.311Z,16.5
2019-05-11T22:25:13.417Z,16.1
2019-05-11T22:30:10.446Z,16.6
2019-05-11T22:35:07.012Z,16.6
2019-05-11T22:40:03.644Z,16.6
2019-05-11T22:45:00.139Z,16.5
2019-05-11T22:49:58.273Z,16.4
2019-05-11T22:54:53.303Z,16.4
2019-05-11T22:59:49.836Z,16.3
2019-05-11T23:04:48.460Z,15.9
2019-05-11T23:09:43.057Z,16.3
2019-05-11T23:14:39.714Z,16.3
2019-05-11T23:19:38.078Z,16.2
2019-05-11T23:24:32.680Z,16.2
2019-05-11T23:29:28.775Z,16.1
2019-05-11T23:34:25.518Z,16.1
2019-05-11T23:39:22.337Z,16
2019-05-11T23:44:19.046Z,16
2019-05-11T23:49:17.732Z,16
2019-05-11T23:54:11.935Z,15.8
2019-05-11T23:59:08.639Z,15.9
